Time,TemperatureF,DewpointF,PressureIn,WindDirection,WindDirectionDegrees,WindSpeedMPH,WindSpeedGustMPH,Humidity,HourlyPrecipIn,Conditions,Clouds,dailyrainin,SoftwareType,DateUTC
2013-09-19 00:07:00,77.0,74.0,0.00,North,0,0.0,0.0,88,0.00,,,-99.99,Homeseer,2013-09-19 04:07:00,
2013-09-19 00:17:00,76.8,74.3,0.00,North,0,1.6,1.6,90,0.00,,,-99.99,Homeseer,2013-09-19 04:17:00,
2013-09-19 00:27:00,76.6,74.1,0.00,NNE,22,2.2,2.2,90,0.00,,,-99.99,Homeseer,2013-09-19 04:27:00,
2013-09-19 00:37:00,76.5,74.0,0.00,North,0,0.0,0.0,90,0.00,,,-99.99,Homeseer,2013-09-19 04:37:00,
2013-09-19 00:47:00,76.6,74.1,0.00,NNE,22,0.0,0.0,90,0.00,,,-99.99,Homeseer,2013-09-19 04:47:00,
2013-09-19 00:57:00,76.6,74.1,0.00,North,0,0.0,0.0,90,0.00,,,-99.99,Homeseer,2013-09-19 04:57:00,
2013-09-19 01:07:00,76.5,74.0,0.00,NNE,22,0.0,0.0,90,0.00,,,-99.99,Homeseer,2013-09-19 05:07:00,
2013-09-19 01:17:00,76.5,74.0,0.00,NNE,22,0.0,0.0,90,0.00,,,-99.99,Homeseer,2013-09-19 05:17:00,
2013-09-19 01:27:00,76.5,74.0,0.00,WNW,297,0.0,0.0,90,0.00,,,-99.99,Homeseer,2013-09-19 05:27:00,
2013-09-19 01:37:00,76.6,74.1,0.00,WNW,297,0.0,0.0,90,0.00,,,-99.99,Homeseer,2013-09-19 05:37:00,
2013-09-19 01:47:00,76.6,74.1,0.00,North,0,0.0,0.0,90,0.00,,,-99.99,Homeseer,2013-09-19 05:47:00,
2013-09-19 01:57:00,76.5,74.0,0.00,NW,315,0.0,0.0,90,0.00,,,-99.99,Homeseer,2013-09-19 05:57:00,
2013-09-19 02:07:00,76.3,74.1,0.00,North,0,0.0,0.0,91,0.00,,,-99.99,Homeseer,2013-09-19 06:07:00,
2013-09-19 02:17:00,76.1,73.9,0.00,NE,45,0.0,0.0,91,0.00,,,-99.99,Homeseer,2013-09-19 06:17:00,
2013-09-19 02:27:00,76.1,73.9,0.00,North,0,0.0,0.0,91,0.00,,,-99.99,Homeseer,2013-09-19 06:27:00,
2013-09-19 02:37:00,76.1,73.9,0.00,NNE,22,0.0,0.0,91,0.00,,,-99.99,Homeseer,2013-09-19 06:37:00,
2013-09-19 02:47:00,75.9,73.7,0.00,North,0,0.0,0.0,91,0.00,,,-99.99,Homeseer,2013-09-19 06:47:00,
2013-09-19 02:57:00,75.9,73.7,0.00,North,0,0.9,2.0,91,0.00,,,-99.99,Homeseer,2013-09-19 06:57:00,
2013-09-19 03:07:00,75.9,73.9,0.00,North,0,0.0,0.0,92,0.00,,,-99.99,Homeseer,2013-09-19 07:07:00,
2013-09-19 03:17:00,76.1,73.9,0.00,NNE,22,0.0,0.0,91,0.00,,,-99.99,Homeseer,2013-09-19 07:17:00,
2013-09-19 03:27:00,75.9,73.9,0.00,North,0,0.0,0.0,92,0.00,,,-99.99,Homeseer,2013-09-19 07:27:00,
2013-09-19 03:37:00,76.1,74.1,0.00,North,0,0.0,0.0,92,0.00,,,-99.99,Homeseer,2013-09-19 07:37:00,
2013-09-19 03:47:00,75.7,73.7,0.00,North,0,0.0,0.0,92,0.00,,,-99.99,Homeseer,2013-09-19 07:47:00,
2013-09-19 03:57:00,75.7,74.0,0.00,NE,45,0.0,0.0,93,0.00,,,-99.99,Homeseer,2013-09-19 07:57:00,
2013-09-19 04:07:00,75.7,74.0,0.00,North,0,0.0,0.0,93,0.00,,,-99.99,Homeseer,2013-09-19 08:07:00,
2013-09-19 04:17:00,75.7,74.0,0.00,NNE,22,0.0,0.0,93,0.00,,,-99.99,Homeseer,2013-09-19 08:17:00,
2013-09-19 04:27:00,75.7,74.0,0.00,ENE,67,0.0,0.0,93,0.00,,,-99.99,Homeseer,2013-09-19 08:27:00,
2013-09-19 04:37:00,75.7,74.0,0.00,ENE,67,0.0,0.0,93,0.00,,,-99.99,Homeseer,2013-09-19 08:37:00,
2013-09-19 04:47:00,75.6,74.1,0.00,ENE,67,0.0,0.0,94,0.00,,,-99.99,Homeseer,2013-09-19 08:47:00,
2013-09-19 04:57:00,75.7,74.2,0.00,North,0,0.0,0.0,94,0.00,,,-99.99,Homeseer,2013-09-19 08:57:00,
2013-09-19 05:07:00,75.7,74.2,0.00,North,0,0.0,0.0,94,0.00,,,-99.99,Homeseer,2013-09-19 09:07:00,
2013-09-19 05:17:00,75.9,74.4,0.00,North,0,0.0,0.0,94,0.00,,,-99.99,Homeseer,2013-09-19 09:17:00,
2013-09-19 05:27:00,75.9,74.4,0.00,North,0,0.9,2.5,94,0.00,,,-99.99,Homeseer,2013-09-19 09:27:00,
2013-09-19 05:37:00,75.9,74.4,0.00,North,0,0.0,0.0,94,0.00,,,-99.99,Homeseer,2013-09-19 09:37:00,
2013-09-19 05:47:00,76.1,74.6,0.00,NW,315,0.9,1.1,94,0.00,,,-99.99,Homeseer,2013-09-19 09:47:00,
2013-09-19 05:57:00,76.1,74.6,0.00,NW,315,0.0,1.1,94,0.00,,,-99.99,Homeseer,2013-09-19 09:57:00,
2013-09-19 06:07:00,76.1,74.4,0.00,NW,315,1.3,1.3,93,0.00,,,-99.99,Homeseer,2013-09-19 10:07:00,
2013-09-19 06:17:00,76.1,74.4,0.00,North,0,0.0,0.0,93,0.00,,,-99.99,Homeseer,2013-09-19 10:17:00,
2013-09-19 06:27:00,76.1,74.4,0.00,NW,315,1.6,2.5,93,0.00,,,-99.99,Homeseer,2013-09-19 10:27:00,
2013-09-19 06:37:00,76.3,74.8,0.00,NW,315,1.1,1.1,94,0.00,,,-99.99,Homeseer,2013-09-19 10:37:00,
2013-09-19 06:47:00,77.0,75.3,0.00,ESE,112,3.6,3.6,93,0.00,,,-99.99,Homeseer,2013-09-19 10:47:00,
2013-09-19 06:57:00,78.6,76.3,0.00,ESE,112,3.4,4.0,91,0.00,,,-99.99,Homeseer,2013-09-19 10:57:00,
2013-09-19 07:07:00,79.2,75.9,0.00,ESE,112,2.2,3.8,87,0.00,,,-99.99,Homeseer,2013-09-19 11:07:00,
2013-09-19 07:17:00,79.5,74.5,0.00,East,90,1.3,1.3,81,0.00,,,-99.99,Homeseer,2013-09-19 11:17:00,
2013-09-19 07:27:00,79.7,73.5,0.00,ESE,112,3.1,4.0,77,0.00,,,-99.99,Homeseer,2013-09-19 11:27:00,
2013-09-19 07:37:00,80.1,73.8,0.00,ESE,112,1.6,2.7,77,0.00,,,-99.99,Homeseer,2013-09-19 11:37:00,
2013-09-19 07:47:00,80.2,74.2,0.00,ESE,112,1.1,0.0,78,0.00,,,-99.99,Homeseer,2013-09-19 11:47:00,
2013-09-19 07:57:00,80.6,74.6,0.00,East,90,0.0,0.0,78,0.00,,,-99.99,Homeseer,2013-09-19 11:57:00,
2013-09-19 08:07:00,81.1,73.6,0.00,ENE,67,2.0,2.0,73,0.00,,,-99.99,Homeseer,2013-09-19 12:07:00,
2013-09-19 08:17:00,81.5,72.3,0.00,East,90,3.6,3.6,68,0.00,,,-99.99,Homeseer,2013-09-19 12:17:00,
2013-09-19 08:27:00,82.0,72.4,0.00,ESE,112,3.1,4.5,67,0.00,,,-99.99,Homeseer,2013-09-19 12:27:00,
2013-09-19 08:37:00,82.2,72.6,0.00,SE,135,1.1,1.3,67,0.00,,,-99.99,Homeseer,2013-09-19 12:37:00,
2013-09-19 08:47:00,82.8,71.7,0.00,ESE,112,2.7,3.1,63,0.00,,,-99.99,Homeseer,2013-09-19 12:47:00,
2013-09-19 08:57:00,83.1,71.6,0.00,SSE,157,1.6,2.0,62,0.00,,,-99.99,Homeseer,2013-09-19 12:57:00,
2013-09-19 09:07:00,83.5,71.3,0.00,NNE,22,1.3,2.2,60,0.00,,,-99.99,Homeseer,2013-09-19 13:07:00,
2013-09-19 09:17:00,83.8,71.1,0.00,ESE,112,3.8,3.8,59,0.00,,,-99.99,Homeseer,2013-09-19 13:17:00,
2013-09-19 09:27:00,84.0,70.1,0.00,ENE,67,4.0,4.0,56,0.00,,,-99.99,Homeseer,2013-09-19 13:27:00,
2013-09-19 09:37:00,83.8,71.1,0.00,ESE,112,1.1,0.0,59,0.00,,,-99.99,Homeseer,2013-09-19 13:37:00,
2013-09-19 09:47:00,84.9,71.0,0.00,ESE,112,2.9,3.1,56,0.00,,,-99.99,Homeseer,2013-09-19 13:47:00,
2013-09-19 09:57:00,84.9,69.3,0.00,SSE,157,2.9,3.6,52,0.00,,,-99.99,Homeseer,2013-09-19 13:57:00,
2013-09-19 10:07:00,85.5,71.1,0.00,SSE,157,2.9,3.6,55,0.00,,,-99.99,Homeseer,2013-09-19 14:07:00,
2013-09-19 10:17:00,85.5,68.9,0.00,ENE,67,3.6,3.6,50,0.00,,,-99.99,Homeseer,2013-09-19 14:17:00,
2013-09-19 10:27:00,85.6,68.5,0.00,ESE,112,2.7,4.5,49,0.00,,,-99.99,Homeseer,2013-09-19 14:27:00,
2013-09-19 10:37:00,86.0,68.9,0.00,ESE,112,4.5,4.5,49,0.00,,,-99.99,Homeseer,2013-09-19 14:37:00,
2013-09-19 10:47:00,86.0,68.9,0.00,SE,135,3.8,4.3,49,0.00,,,-99.99,Homeseer,2013-09-19 14:47:00,
2013-09-19 10:57:00,86.5,68.9,0.00,ESE,112,3.8,4.9,48,0.00,,,-99.99,Homeseer,2013-09-19 14:57:00,
2013-09-19 11:07:00,87.3,69.6,0.00,SE,135,2.7,3.8,48,0.00,,,-99.99,Homeseer,2013-09-19 15:07:00,
2013-09-19 11:17:00,86.7,69.1,0.00,ESE,112,4.7,6.5,48,0.00,,,-99.99,Homeseer,2013-09-19 15:17:00,
2013-09-19 11:27:00,86.9,68.8,0.00,East,90,4.7,4.7,47,0.00,,,-99.99,Homeseer,2013-09-19 15:27:00,
2013-09-19 11:37:00,87.1,68.9,0.00,ESE,112,4.9,6.5,47,0.00,,,-99.99,Homeseer,2013-09-19 15:37:00,
2013-09-19 11:47:00,87.3,70.1,0.00,SSE,157,3.4,3.8,49,0.00,,,-99.99,Homeseer,2013-09-19 15:47:00,
2013-09-19 11:57:00,87.1,68.4,0.00,SE,135,2.9,3.6,46,0.00,,,-99.99,Homeseer,2013-09-19 15:57:00,
2013-09-19 12:07:00,87.3,68.1,0.00,ESE,112,5.6,7.6,45,0.00,,,-99.99,Homeseer,2013-09-19 16:07:00,
2013-09-19 12:17:00,87.1,68.9,0.00,ESE,112,5.4,7.8,47,0.00,,,-99.99,Homeseer,2013-09-19 16:17:00,
2013-09-19 12:27:00,87.3,69.1,0.00,SE,135,4.0,4.0,47,0.00,,,-99.99,Homeseer,2013-09-19 16:27:00,
2013-09-19 12:37:00,87.3,67.6,0.00,East,90,4.5,4.5,44,0.00,,,-99.99,Homeseer,2013-09-19 16:37:00,
2013-09-19 12:47:00,87.1,68.9,0.00,ESE,112,6.5,6.5,47,0.00,,,-99.99,Homeseer,2013-09-19 16:47:00,
2013-09-19 12:57:00,87.3,68.1,0.00,ESE,112,2.9,7.6,45,0.00,,,-99.99,Homeseer,2013-09-19 16:57:00,
2013-09-19 13:07:00,88.0,69.3,0.00,ESE,112,5.4,5.6,46,0.00,,,-99.99,Homeseer,2013-09-19 17:07:00,
2013-09-19 13:17:00,87.4,69.2,0.00,ESE,112,4.3,5.4,47,0.00,,,-99.99,Homeseer,2013-09-19 17:17:00,
2013-09-19 13:27:00,87.1,68.9,0.00,ESE,112,3.8,3.8,47,0.00,,,-99.99,Homeseer,2013-09-19 17:27:00,
2013-09-19 13:37:00,87.4,69.2,0.00,SSE,157,3.6,6.5,47,0.00,,,-99.99,Homeseer,2013-09-19 17:37:00,
2013-09-19 13:47:00,87.8,69.1,0.00,SSE,157,4.5,4.5,46,0.00,,,-99.99,Homeseer,2013-09-19 17:47:00,
2013-09-19 13:57:00,87.4,68.2,0.00,SE,135,6.0,6.0,45,0.00,,,-99.99,Homeseer,2013-09-19 17:57:00,
2013-09-19 14:07:00,87.3,67.6,0.00,ESE,112,6.5,6.5,44,0.00,,,-99.99,Homeseer,2013-09-19 18:07:00,
2013-09-19 14:17:00,87.3,67.1,0.00,South,180,4.7,7.4,43,0.00,,,-99.99,Homeseer,2013-09-19 18:17:00,
2013-09-19 14:27:00,87.3,68.1,0.00,ESE,112,6.9,8.5,45,0.00,,,-99.99,Homeseer,2013-09-19 18:27:00,
2013-09-19 14:37:00,87.1,68.4,0.00,ESE,112,5.4,5.4,46,0.00,,,-99.99,Homeseer,2013-09-19 18:37:00,
2013-09-19 14:47:00,86.9,68.8,0.00,SSE,157,4.9,4.9,47,0.00,,,-99.99,Homeseer,2013-09-19 18:47:00,
2013-09-19 14:57:00,85.6,69.0,0.00,ESE,112,6.0,6.0,50,0.00,,,-99.99,Homeseer,2013-09-19 18:57:00,
2013-09-19 15:07:00,85.8,68.7,0.00,East,90,4.9,4.9,49,0.00,,,-99.99,Homeseer,2013-09-19 19:07:00,
2013-09-19 15:17:00,85.3,69.6,0.00,East,90,5.4,5.4,52,0.00,,,-99.99,Homeseer,2013-09-19 19:17:00,
2013-09-19 15:27:00,84.9,69.7,0.00,SE,135,3.6,3.6,53,0.00,,,-99.99,Homeseer,2013-09-19 19:27:00,
2013-09-19 15:37:00,85.1,69.0,0.00,East,90,5.8,5.8,51,0.00,,,-99.99,Homeseer,2013-09-19 19:37:00,
2013-09-19 15:47:00,85.1,69.0,0.00,ESE,112,4.7,4.7,51,0.00,,,-99.99,Homeseer,2013-09-19 19:47:00,
2013-09-19 15:57:00,84.4,69.7,0.00,ESE,112,5.8,5.8,54,0.00,,,-99.99,Homeseer,2013-09-19 19:57:00,
2013-09-19 16:07:00,84.0,69.7,0.00,East,90,4.0,6.0,55,0.00,,,-99.99,Homeseer,2013-09-19 20:07:00,
2013-09-19 16:17:00,84.4,67.9,0.00,East,90,2.9,3.4,50,0.00,,,-99.99,Homeseer,2013-09-19 20:17:00,
2013-09-19 16:27:00,84.2,68.2,0.00,East,90,3.8,3.8,51,0.00,,,-99.99,Homeseer,2013-09-19 20:27:00,
2013-09-19 16:37:00,83.8,69.1,0.00,East,90,4.0,4.0,54,0.00,,,-99.99,Homeseer,2013-09-19 20:37:00,
2013-09-19 16:47:00,83.8,67.8,0.00,ESE,112,4.5,4.9,51,0.00,,,-99.99,Homeseer,2013-09-19 20:47:00,
2013-09-19 16:57:00,83.8,68.3,0.00,SE,135,3.6,3.6,52,0.00,,,-99.99,Homeseer,2013-09-19 20:57:00,
2013-09-19 17:07:00,83.7,69.0,0.00,ESE,112,3.6,3.6,54,0.00,,,-99.99,Homeseer,2013-09-19 21:07:00,
2013-09-19 17:17:00,83.7,69.0,0.00,ESE,112,7.2,7.2,54,0.00,,,-99.99,Homeseer,2013-09-19 21:17:00,
2013-09-19 17:27:00,83.5,70.1,0.00,SSE,157,5.6,6.3,57,0.00,,,-99.99,Homeseer,2013-09-19 21:27:00,
2013-09-19 17:37:00,83.3,70.7,0.00,ENE,67,5.8,5.8,59,0.00,,,-99.99,Homeseer,2013-09-19 21:37:00,
2013-09-19 17:47:00,82.8,69.4,0.00,SSE,157,5.6,9.8,57,0.00,,,-99.99,Homeseer,2013-09-19 21:47:00,
2013-09-19 17:57:00,82.8,69.0,0.00,SSE,157,5.6,6.0,56,0.00,,,-99.99,Homeseer,2013-09-19 21:57:00,
2013-09-19 18:07:00,82.8,72.1,0.00,ESE,112,4.0,4.0,64,0.00,,,-99.99,Homeseer,2013-09-19 22:07:00,
2013-09-19 18:17:00,83.1,69.7,0.00,ESE,112,3.4,4.7,57,0.00,,,-99.99,Homeseer,2013-09-19 22:17:00,
2013-09-19 18:27:00,83.1,69.3,0.00,ESE,112,4.3,4.3,56,0.00,,,-99.99,Homeseer,2013-09-19 22:27:00,
2013-09-19 18:37:00,82.2,70.1,0.00,ESE,112,3.8,4.9,60,0.00,,,-99.99,Homeseer,2013-09-19 22:37:00,
2013-09-19 18:47:00,81.5,74.3,0.00,SSE,157,6.0,6.0,74,0.00,,,-99.99,Homeseer,2013-09-19 22:47:00,
2013-09-19 18:57:00,81.0,72.1,0.00,SSE,157,5.4,6.3,69,0.00,,,-99.99,Homeseer,2013-09-19 22:57:00,
2013-09-19 19:07:00,80.8,70.6,0.00,SE,135,6.7,6.7,65,0.00,,,-99.99,Homeseer,2013-09-19 23:07:00,
2013-09-19 19:17:00,81.0,71.1,0.00,East,90,4.9,7.2,66,0.00,,,-99.99,Homeseer,2013-09-19 23:17:00,
2013-09-19 19:27:00,81.1,71.9,0.00,SE,135,4.5,4.5,68,0.00,,,-99.99,Homeseer,2013-09-19 23:27:00,
2013-09-19 19:37:00,81.1,69.8,0.00,SE,135,6.3,6.3,62,0.00,,,-99.99,Homeseer,2013-09-19 23:37:00,
2013-09-19 19:47:00,81.1,71.2,0.00,ESE,112,3.8,3.8,66,0.00,,,-99.99,Homeseer,2013-09-19 23:47:00,
2013-09-19 19:57:00,80.8,71.6,0.00,South,180,6.3,6.3,68,0.00,,,-99.99,Homeseer,2013-09-19 23:57:00,
2013-09-19 20:07:00,80.8,72.0,0.00,East,90,3.6,7.2,69,0.00,,,-99.99,Homeseer,2013-09-20 00:07:00,
2013-09-19 20:17:00,81.0,73.5,0.00,SSE,157,4.9,4.9,73,0.00,,,-99.99,Homeseer,2013-09-20 00:17:00,
2013-09-19 20:27:00,80.1,74.5,0.00,SSE,157,4.0,4.0,79,0.00,,,-99.99,Homeseer,2013-09-20 00:27:00,
2013-09-19 20:37:00,80.2,73.9,0.00,SSE,157,2.9,4.0,77,0.00,,,-99.99,Homeseer,2013-09-20 00:37:00,
2013-09-19 20:47:00,80.1,74.5,0.00,South,180,3.6,4.9,79,0.00,,,-99.99,Homeseer,2013-09-20 00:47:00,
2013-09-19 20:57:00,80.4,73.5,0.00,SE,135,6.5,8.5,75,0.00,,,-99.99,Homeseer,2013-09-20 00:57:00,
2013-09-19 21:07:00,81.0,71.5,0.00,ESE,112,4.3,7.8,67,0.00,,,-99.99,Homeseer,2013-09-20 01:07:00,
2013-09-19 21:17:00,81.3,71.1,0.00,ESE,112,6.7,7.8,65,0.00,,,-99.99,Homeseer,2013-09-20 01:17:00,
2013-09-19 21:27:00,81.3,70.3,0.00,SSE,157,6.3,9.6,63,0.00,,,-99.99,Homeseer,2013-09-20 01:27:00,
2013-09-19 21:37:00,81.7,68.4,0.00,ESE,112,6.7,6.7,57,0.00,,,-99.99,Homeseer,2013-09-20 01:37:00,
2013-09-19 21:47:00,81.5,69.4,0.00,ESE,112,6.3,6.3,60,0.00,,,-99.99,Homeseer,2013-09-20 01:47:00,
2013-09-19 21:57:00,81.7,69.6,0.00,ENE,67,2.5,4.9,60,0.00,,,-99.99,Homeseer,2013-09-20 01:57:00,
2013-09-19 22:07:00,81.7,69.2,0.00,East,90,5.8,5.8,59,0.00,,,-99.99,Homeseer,2013-09-20 02:07:00,
2013-09-19 22:17:00,81.7,68.0,0.00,ESE,112,3.8,3.8,56,0.00,,,-99.99,Homeseer,2013-09-20 02:17:00,
2013-09-19 22:27:00,81.7,68.0,0.00,ENE,67,2.9,4.9,56,0.00,,,-99.99,Homeseer,2013-09-20 02:27:00,
2013-09-19 22:37:00,81.7,67.6,0.00,East,90,3.1,3.4,55,0.00,,,-99.99,Homeseer,2013-09-20 02:37:00,
2013-09-19 22:47:00,81.7,67.2,0.00,SE,135,4.3,7.4,54,0.00,,,-99.99,Homeseer,2013-09-20 02:47:00,
2013-09-19 22:57:00,81.7,65.9,0.00,SE,135,5.4,5.4,51,0.00,,,-99.99,Homeseer,2013-09-20 02:57:00,
2013-09-19 23:07:00,81.5,65.7,0.00,SSE,157,4.0,5.4,51,0.00,,,-99.99,Homeseer,2013-09-20 03:07:00,
2013-09-19 23:17:00,81.5,65.7,0.00,ESE,112,6.7,6.7,51,0.00,,,-99.99,Homeseer,2013-09-20 03:17:00,
2013-09-19 23:27:00,81.5,64.9,0.00,ESE,112,6.0,7.6,49,0.00,,,-99.99,Homeseer,2013-09-20 03:27:00,
2013-09-19 23:37:00,81.5,64.4,0.00,ESE,112,3.1,3.1,48,0.00,,,-99.99,Homeseer,2013-09-20 03:37:00,
2013-09-19 23:47:00,81.5,65.3,0.00,East,90,2.9,3.8,50,0.00,,,-99.99,Homeseer,2013-09-20 03:47:00,
2013-09-19 23:57:00,81.5,64.4,0.00,ESE,112,3.1,3.1,48,0.00,,,-99.99,Homeseer,2013-09-20 03:57:00,